sensor_id;sensor_type;location;lat;lon;timestamp;temperature;humidity
29295;DHT22;16305;48.566;8.846;2023-01-24T00:00:35;1.20;99.90
29295;DHT22;16305;48.566;8.846;2023-01-24T00:03:01;1.20;99.90
29295;DHT22;16305;48.566;8.846;2023-01-24T00:05:26;1.30;99.90
29295;DHT22;16305;48.566;8.846;2023-01-24T00:07:52;1.30;99.90
29295;DHT22;16305;48.566;8.846;2023-01-24T00:10:17;1.20;99.90
29295;DHT22;16305;48.566;8.846;2023-01-24T00:12:43;1.20;99.90
29295;DHT22;16305;48.566;8.846;2023-01-24T00:15:09;1.20;99.90
29295;DHT22;16305;48.566;8.846;2023-01-24T00:17:35;1.30;99.90
29295;DHT22;16305;48.566;8.846;2023-01-24T00:20:01;1.30;99.90
29295;DHT22;16305;48.566;8.846;2023-01-24T00:22:26;1.20;99.90
29295;DHT22;16305;48.566;8.846;2023-01-24T00:24:52;1.20;99.90
29295;DHT22;16305;48.566;8.846;2023-01-24T00:27:17;1.30;99.90
29295;DHT22;16305;48.566;8.846;2023-01-24T00:29:43;1.30;99.90
29295;DHT22;16305;48.566;8.846;2023-01-24T00:32:09;1.20;99.90
29295;DHT22;16305;48.566;8.846;2023-01-24T00:34:35;1.30;99.90
29295;DHT22;16305;48.566;8.846;2023-01-24T00:37:00;1.20;99.90
29295;DHT22;16305;48.566;8.846;2023-01-24T00:39:26;1.20;99.90
29295;DHT22;16305;48.566;8.846;2023-01-24T00:41:51;1.20;99.90
29295;DHT22;16305;48.566;8.846;2023-01-24T00:44:17;1.20;99.90
29295;DHT22;16305;48.566;8.846;2023-01-24T00:46:42;1.20;99.90
29295;DHT22;16305;48.566;8.846;2023-01-24T00:49:08;1.20;99.90
29295;DHT22;16305;48.566;8.846;2023-01-24T00:51:34;1.30;99.90
29295;DHT22;16305;48.566;8.846;2023-01-24T00:53:59;1.30;99.90
29295;DHT22;16305;48.566;8.846;2023-01-24T00:56:25;1.20;99.90
29295;DHT22;16305;48.566;8.846;2023-01-24T00:58:50;1.20;99.90
29295;DHT22;16305;48.566;8.846;2023-01-24T01:01:16;1.20;99.90
29295;DHT22;16305;48.566;8.846;2023-01-24T01:03:42;1.20;99.90
29295;DHT22;16305;48.566;8.846;2023-01-24T01:06:12;1.30;99.90
29295;DHT22;16305;48.566;8.846;2023-01-24T01:08:38;1.40;99.90
29295;DHT22;16305;48.566;8.846;2023-01-24T01:11:04;1.40;99.90
29295;DHT22;16305;48.566;8.846;2023-01-24T01:13:30;1.30;99.90
29295;DHT22;16305;48.566;8.846;2023-01-24T01:16:04;1.30;99.90
29295;DHT22;16305;48.566;8.846;2023-01-24T01:18:31;1.40;99.90
29295;DHT22;16305;48.566;8.846;2023-01-24T01:20:57;1.40;99.90
29295;DHT22;16305;48.566;8.846;2023-01-24T01:23:22;1.30;99.90
29295;DHT22;16305;48.566;8.846;2023-01-24T01:25:48;1.30;99.90
29295;DHT22;16305;48.566;8.846;2023-01-24T01:28:13;1.30;99.90
29295;DHT22;16305;48.566;8.846;2023-01-24T01:30:39;1.30;99.90
29295;DHT22;16305;48.566;8.846;2023-01-24T01:33:04;1.30;99.90
29295;DHT22;16305;48.566;8.846;2023-01-24T01:35:30;1.30;99.90
29295;DHT22;16305;48.566;8.846;2023-01-24T01:37:55;1.30;99.90
29295;DHT22;16305;48.566;8.846;2023-01-24T01:40:21;1.30;99.90
29295;DHT22;16305;48.566;8.846;2023-01-24T01:45:38;1.30;99.90
29295;DHT22;16305;48.566;8.846;2023-01-24T01:50:50;1.30;99.90
29295;DHT22;16305;48.566;8.846;2023-01-24T01:53:17;1.30;99.90
29295;DHT22;16305;48.566;8.846;2023-01-24T01:55:47;1.20;99.90
29295;DHT22;16305;48.566;8.846;2023-01-24T01:58:14;1.30;99.90
29295;DHT22;16305;48.566;8.846;2023-01-24T02:00:40;1.30;99.90
29295;DHT22;16305;48.566;8.846;2023-01-24T02:03:17;1.30;99.90
29295;DHT22;16305;48.566;8.846;2023-01-24T02:06:03;1.20;99.90
29295;DHT22;16305;48.566;8.846;2023-01-24T02:08:29;1.20;99.90
29295;DHT22;16305;48.566;8.846;2023-01-24T02:10:57;1.10;99.90
29295;DHT22;16305;48.566;8.846;2023-01-24T02:13:43;1.20;99.90
29295;DHT22;16305;48.566;8.846;2023-01-24T02:16:10;1.20;99.90
29295;DHT22;16305;48.566;8.846;2023-01-24T02:18:39;1.10;99.90
29295;DHT22;16305;48.566;8.846;2023-01-24T02:21:13;1.10;99.90
29295;DHT22;16305;48.566;8.846;2023-01-24T02:23:57;1.10;99.90
29295;DHT22;16305;48.566;8.846;2023-01-24T02:26:26;1.10;99.90
29295;DHT22;16305;48.566;8.846;2023-01-24T02:29:06;1.10;99.90
29295;DHT22;16305;48.566;8.846;2023-01-24T02:32:10;1.10;99.90
29295;DHT22;16305;48.566;8.846;2023-01-24T02:34:38;1.10;99.90
29295;DHT22;16305;48.566;8.846;2023-01-24T02:37:12;1.10;99.90
29295;DHT22;16305;48.566;8.846;2023-01-24T02:39:55;1.10;99.90
29295;DHT22;16305;48.566;8.846;2023-01-24T02:42:24;1.10;99.90
29295;DHT22;16305;48.566;8.846;2023-01-24T02:45:08;1.10;99.90
29295;DHT22;16305;48.566;8.846;2023-01-24T02:47:38;1.00;99.90
29295;DHT22;16305;48.566;8.846;2023-01-24T02:50:05;1.00;99.90
29295;DHT22;16305;48.566;8.846;2023-01-24T02:52:33;1.00;99.90
29295;DHT22;16305;48.566;8.846;2023-01-24T02:55:18;1.00;99.90
29295;DHT22;16305;48.566;8.846;2023-01-24T02:57:43;1.00;99.90
29295;DHT22;16305;48.566;8.846;2023-01-24T03:00:27;1.00;99.90
29295;DHT22;16305;48.566;8.846;2023-01-24T03:02:53;0.90;99.90
29295;DHT22;16305;48.566;8.846;2023-01-24T03:05:18;0.90;99.90
29295;DHT22;16305;48.566;8.846;2023-01-24T03:07:44;1.00;99.90
29295;DHT22;16305;48.566;8.846;2023-01-24T03:10:17;0.90;99.90
29295;DHT22;16305;48.566;8.846;2023-01-24T03:12:44;0.90;99.90
29295;DHT22;16305;48.566;8.846;2023-01-24T03:15:28;0.90;99.90
29295;DHT22;16305;48.566;8.846;2023-01-24T03:18:13;0.80;99.90
29295;DHT22;16305;48.566;8.846;2023-01-24T03:20:57;0.90;99.90
29295;DHT22;16305;48.566;8.846;2023-01-24T03:23:41;0.90;99.90
29295;DHT22;16305;48.566;8.846;2023-01-24T03:26:25;0.80;99.90
29295;DHT22;16305;48.566;8.846;2023-01-24T03:29:09;0.90;99.90
29295;DHT22;16305;48.566;8.846;2023-01-24T03:31:54;0.90;99.90
29295;DHT22;16305;48.566;8.846;2023-01-24T03:34:38;0.90;99.90
29295;DHT22;16305;48.566;8.846;2023-01-24T03:37:18;0.90;99.90
29295;DHT22;16305;48.566;8.846;2023-01-24T03:40:06;0.80;99.90
29295;DHT22;16305;48.566;8.846;2023-01-24T03:42:33;0.80;99.90
29295;DHT22;16305;48.566;8.846;2023-01-24T03:45:00;0.80;99.90
29295;DHT22;16305;48.566;8.846;2023-01-24T03:47:25;0.80;99.90
29295;DHT22;16305;48.566;8.846;2023-01-24T03:49:51;0.90;99.90
29295;DHT22;16305;48.566;8.846;2023-01-24T03:52:35;0.90;99.90
29295;DHT22;16305;48.566;8.846;2023-01-24T03:55:01;0.90;99.90
29295;DHT22;16305;48.566;8.846;2023-01-24T03:57:28;0.90;99.90
29295;DHT22;16305;48.566;8.846;2023-01-24T03:59:53;0.80;99.90
29295;DHT22;16305;48.566;8.846;2023-01-24T04:02:20;0.90;99.90
29295;DHT22;16305;48.566;8.846;2023-01-24T04:04:45;0.90;99.90
29295;DHT22;16305;48.566;8.846;2023-01-24T04:07:30;0.90;99.90
29295;DHT22;16305;48.566;8.846;2023-01-24T04:09:56;0.90;99.90
29295;DHT22;16305;48.566;8.846;2023-01-24T04:12:24;0.90;99.90
29295;DHT22;16305;48.566;8.846;2023-01-24T04:14:50;0.90;99.90
29295;DHT22;16305;48.566;8.846;2023-01-24T04:17:15;0.90;99.90
29295;DHT22;16305;48.566;8.846;2023-01-24T04:19:41;0.90;99.90
29295;DHT22;16305;48.566;8.846;2023-01-24T04:22:07;0.90;99.90
29295;DHT22;16305;48.566;8.846;2023-01-24T04:24:33;0.90;99.90
29295;DHT22;16305;48.566;8.846;2023-01-24T04:26:58;0.90;99.90
29295;DHT22;16305;48.566;8.846;2023-01-24T04:29:23;0.90;99.90
29295;DHT22;16305;48.566;8.846;2023-01-24T04:31:49;0.90;99.90
29295;DHT22;16305;48.566;8.846;2023-01-24T04:34:15;0.90;99.90
29295;DHT22;16305;48.566;8.846;2023-01-24T04:36:40;0.90;99.90
29295;DHT22;16305;48.566;8.846;2023-01-24T04:39:06;0.90;99.90
29295;DHT22;16305;48.566;8.846;2023-01-24T04:41:31;0.90;99.90
29295;DHT22;16305;48.566;8.846;2023-01-24T04:43:56;0.90;99.90
29295;DHT22;16305;48.566;8.846;2023-01-24T04:46:22;0.90;99.90
29295;DHT22;16305;48.566;8.846;2023-01-24T04:48:48;1.00;99.90
29295;DHT22;16305;48.566;8.846;2023-01-24T04:51:13;1.00;99.90
29295;DHT22;16305;48.566;8.846;2023-01-24T04:53:39;1.00;99.90
29295;DHT22;16305;48.566;8.846;2023-01-24T04:56:06;1.00;99.90
29295;DHT22;16305;48.566;8.846;2023-01-24T04:58:33;1.00;99.90
29295;DHT22;16305;48.566;8.846;2023-01-24T05:00:59;1.00;99.90
29295;DHT22;16305;48.566;8.846;2023-01-24T05:03:24;1.00;99.90
29295;DHT22;16305;48.566;8.846;2023-01-24T05:05:51;1.00;99.90
29295;DHT22;16305;48.566;8.846;2023-01-24T05:08:16;1.00;99.90
29295;DHT22;16305;48.566;8.846;2023-01-24T05:10:42;0.90;99.90
29295;DHT22;16305;48.566;8.846;2023-01-24T05:13:07;1.00;99.90
29295;DHT22;16305;48.566;8.846;2023-01-24T05:15:33;1.00;99.90
29295;DHT22;16305;48.566;8.846;2023-01-24T05:17:58;0.90;99.90
29295;DHT22;16305;48.566;8.846;2023-01-24T05:20:24;0.90;99.90
29295;DHT22;16305;48.566;8.846;2023-01-24T05:22:49;0.90;99.90
29295;DHT22;16305;48.566;8.846;2023-01-24T05:25:15;0.90;99.90
29295;DHT22;16305;48.566;8.846;2023-01-24T05:27:41;1.00;99.90
29295;DHT22;16305;48.566;8.846;2023-01-24T05:30:08;0.90;99.90
29295;DHT22;16305;48.566;8.846;2023-01-24T05:32:33;0.90;99.90
29295;DHT22;16305;48.566;8.846;2023-01-24T05:34:59;0.90;99.90
29295;DHT22;16305;48.566;8.846;2023-01-24T05:37:24;0.90;99.90
29295;DHT22;16305;48.566;8.846;2023-01-24T05:39:50;0.90;99.90
29295;DHT22;16305;48.566;8.846;2023-01-24T05:42:15;1.00;99.90
29295;DHT22;16305;48.566;8.846;2023-01-24T05:44:41;1.00;99.90
29295;DHT22;16305;48.566;8.846;2023-01-24T05:47:06;1.00;99.90
29295;DHT22;16305;48.566;8.846;2023-01-24T05:49:32;1.00;99.90
29295;DHT22;16305;48.566;8.846;2023-01-24T05:51:57;1.00;99.90
29295;DHT22;16305;48.566;8.846;2023-01-24T05:54:23;1.00;99.90
29295;DHT22;16305;48.566;8.846;2023-01-24T05:56:49;0.90;99.90
29295;DHT22;16305;48.566;8.846;2023-01-24T05:59:14;0.90;99.90
29295;DHT22;16305;48.566;8.846;2023-01-24T06:01:40;0.90;99.90
29295;DHT22;16305;48.566;8.846;2023-01-24T06:04:05;0.90;99.90
29295;DHT22;16305;48.566;8.846;2023-01-24T06:06:31;0.90;99.90
29295;DHT22;16305;48.566;8.846;2023-01-24T06:08:56;0.90;99.90
29295;DHT22;16305;48.566;8.846;2023-01-24T06:11:24;0.90;99.90
29295;DHT22;16305;48.566;8.846;2023-01-24T06:13:49;0.90;99.90
29295;DHT22;16305;48.566;8.846;2023-01-24T06:16:21;0.90;99.90
29295;DHT22;16305;48.566;8.846;2023-01-24T06:18:48;0.90;99.90
29295;DHT22;16305;48.566;8.846;2023-01-24T06:23:51;0.90;99.90
29295;DHT22;16305;48.566;8.846;2023-01-24T06:26:17;0.80;99.90
29295;DHT22;16305;48.566;8.846;2023-01-24T06:28:43;0.90;99.90
29295;DHT22;16305;48.566;8.846;2023-01-24T06:31:54;0.90;99.90
29295;DHT22;16305;48.566;8.846;2023-01-24T06:37:08;0.90;99.90
29295;DHT22;16305;48.566;8.846;2023-01-24T06:39:38;0.90;99.90
29295;DHT22;16305;48.566;8.846;2023-01-24T06:42:04;0.90;99.90
29295;DHT22;16305;48.566;8.846;2023-01-24T06:44:30;0.90;99.90
29295;DHT22;16305;48.566;8.846;2023-01-24T06:46:56;0.90;99.90
29295;DHT22;16305;48.566;8.846;2023-01-24T06:49:21;0.90;99.90
29295;DHT22;16305;48.566;8.846;2023-01-24T06:51:51;0.90;99.90
29295;DHT22;16305;48.566;8.846;2023-01-24T06:54:17;0.90;99.90
29295;DHT22;16305;48.566;8.846;2023-01-24T06:56:43;0.90;99.90
29295;DHT22;16305;48.566;8.846;2023-01-24T06:59:08;0.90;99.90
29295;DHT22;16305;48.566;8.846;2023-01-24T07:01:34;0.90;99.90
29295;DHT22;16305;48.566;8.846;2023-01-24T07:04:00;0.90;99.90
29295;DHT22;16305;48.566;8.846;2023-01-24T07:06:25;0.90;99.90
29295;DHT22;16305;48.566;8.846;2023-01-24T07:08:52;0.90;99.90
29295;DHT22;16305;48.566;8.846;2023-01-24T07:11:17;0.90;99.90
29295;DHT22;16305;48.566;8.846;2023-01-24T07:13:43;0.80;99.90
29295;DHT22;16305;48.566;8.846;2023-01-24T07:16:09;0.80;99.90
29295;DHT22;16305;48.566;8.846;2023-01-24T07:18:34;0.80;99.90
29295;DHT22;16305;48.566;8.846;2023-01-24T07:21:04;0.90;99.90
29295;DHT22;16305;48.566;8.846;2023-01-24T07:23:30;0.90;99.90
29295;DHT22;16305;48.566;8.846;2023-01-24T07:25:58;0.90;99.90
29295;DHT22;16305;48.566;8.846;2023-01-24T07:28:24;0.90;99.90
29295;DHT22;16305;48.566;8.846;2023-01-24T07:30:51;0.90;99.90
29295;DHT22;16305;48.566;8.846;2023-01-24T07:33:17;0.90;99.90
29295;DHT22;16305;48.566;8.846;2023-01-24T07:35:43;0.90;99.90
29295;DHT22;16305;48.566;8.846;2023-01-24T07:38:09;0.90;99.90
29295;DHT22;16305;48.566;8.846;2023-01-24T07:40:35;0.90;99.90
29295;DHT22;16305;48.566;8.846;2023-01-24T07:43:02;0.90;99.90
29295;DHT22;16305;48.566;8.846;2023-01-24T07:45:28;0.90;99.90
29295;DHT22;16305;48.566;8.846;2023-01-24T07:47:55;0.90;99.90
29295;DHT22;16305;48.566;8.846;2023-01-24T07:50:22;0.90;99.90
29295;DHT22;16305;48.566;8.846;2023-01-24T07:52:51;0.90;99.90
29295;DHT22;16305;48.566;8.846;2023-01-24T07:55:17;0.90;99.90
29295;DHT22;16305;48.566;8.846;2023-01-24T07:57:42;1.00;99.90
29295;DHT22;16305;48.566;8.846;2023-01-24T08:00:08;0.90;99.90
29295;DHT22;16305;48.566;8.846;2023-01-24T08:02:34;0.90;99.90
29295;DHT22;16305;48.566;8.846;2023-01-24T08:04:59;0.90;99.90
29295;DHT22;16305;48.566;8.846;2023-01-24T08:07:25;0.90;99.90
29295;DHT22;16305;48.566;8.846;2023-01-24T08:09:50;0.90;99.90
29295;DHT22;16305;48.566;8.846;2023-01-24T08:12:16;0.90;99.90
29295;DHT22;16305;48.566;8.846;2023-01-24T08:14:41;0.90;99.90
29295;DHT22;16305;48.566;8.846;2023-01-24T08:17:07;1.00;99.90
29295;DHT22;16305;48.566;8.846;2023-01-24T08:19:33;1.00;99.90
29295;DHT22;16305;48.566;8.846;2023-01-24T08:21:58;1.00;99.90
29295;DHT22;16305;48.566;8.846;2023-01-24T08:24:24;1.00;99.90
29295;DHT22;16305;48.566;8.846;2023-01-24T08:26:49;1.00;99.90
29295;DHT22;16305;48.566;8.846;2023-01-24T08:29:16;1.00;99.90
29295;DHT22;16305;48.566;8.846;2023-01-24T08:31:42;1.00;99.90
29295;DHT22;16305;48.566;8.846;2023-01-24T08:34:09;1.00;99.90
29295;DHT22;16305;48.566;8.846;2023-01-24T08:36:35;1.00;99.90
29295;DHT22;16305;48.566;8.846;2023-01-24T08:39:00;1.00;99.90
29295;DHT22;16305;48.566;8.846;2023-01-24T08:41:28;1.00;99.90
29295;DHT22;16305;48.566;8.846;2023-01-24T08:43:54;0.90;99.90
29295;DHT22;16305;48.566;8.846;2023-01-24T08:46:19;1.00;99.90
29295;DHT22;16305;48.566;8.846;2023-01-24T08:48:45;1.00;99.90
29295;DHT22;16305;48.566;8.846;2023-01-24T08:51:10;1.00;99.90
29295;DHT22;16305;48.566;8.846;2023-01-24T08:53:36;0.90;99.90
29295;DHT22;16305;48.566;8.846;2023-01-24T08:56:02;0.90;99.90
29295;DHT22;16305;48.566;8.846;2023-01-24T08:58:27;0.90;99.90
29295;DHT22;16305;48.566;8.846;2023-01-24T09:00:53;0.80;99.90
29295;DHT22;16305;48.566;8.846;2023-01-24T09:03:19;0.80;99.90
29295;DHT22;16305;48.566;8.846;2023-01-24T09:05:45;0.80;99.90
29295;DHT22;16305;48.566;8.846;2023-01-24T09:08:11;0.90;99.90
29295;DHT22;16305;48.566;8.846;2023-01-24T09:10:37;0.90;99.90
29295;DHT22;16305;48.566;8.846;2023-01-24T09:13:03;0.90;99.90
29295;DHT22;16305;48.566;8.846;2023-01-24T09:15:31;0.90;99.90
29295;DHT22;16305;48.566;8.846;2023-01-24T09:18:00;0.90;99.90
29295;DHT22;16305;48.566;8.846;2023-01-24T09:20:26;0.90;99.90
29295;DHT22;16305;48.566;8.846;2023-01-24T09:22:51;0.90;99.90
29295;DHT22;16305;48.566;8.846;2023-01-24T09:25:17;1.00;99.90
29295;DHT22;16305;48.566;8.846;2023-01-24T09:27:42;1.00;99.90
29295;DHT22;16305;48.566;8.846;2023-01-24T09:30:09;1.00;99.90
29295;DHT22;16305;48.566;8.846;2023-01-24T09:32:35;1.10;99.90
29295;DHT22;16305;48.566;8.846;2023-01-24T09:35:01;1.10;99.90
29295;DHT22;16305;48.566;8.846;2023-01-24T09:37:27;1.10;99.90
29295;DHT22;16305;48.566;8.846;2023-01-24T09:39:52;1.10;99.90
29295;DHT22;16305;48.566;8.846;2023-01-24T09:42:37;1.10;99.90
29295;DHT22;16305;48.566;8.846;2023-01-24T09:45:33;1.10;99.90
29295;DHT22;16305;48.566;8.846;2023-01-24T09:48:02;1.10;99.90
29295;DHT22;16305;48.566;8.846;2023-01-24T09:50:41;1.10;99.90
29295;DHT22;16305;48.566;8.846;2023-01-24T09:53:26;1.10;99.90
29295;DHT22;16305;48.566;8.846;2023-01-24T09:55:54;1.10;99.90
29295;DHT22;16305;48.566;8.846;2023-01-24T09:58:42;1.20;99.90
29295;DHT22;16305;48.566;8.846;2023-01-24T10:01:12;1.20;99.90
29295;DHT22;16305;48.566;8.846;2023-01-24T10:03:39;1.20;99.90
29295;DHT22;16305;48.566;8.846;2023-01-24T10:06:16;1.20;99.90
29295;DHT22;16305;48.566;8.846;2023-01-24T10:11:48;1.20;99.90
29295;DHT22;16305;48.566;8.846;2023-01-24T10:14:38;1.20;99.90
29295;DHT22;16305;48.566;8.846;2023-01-24T10:20:22;1.30;99.90
29295;DHT22;16305;48.566;8.846;2023-01-24T10:25:55;1.30;99.90
29295;DHT22;16305;48.566;8.846;2023-01-24T10:28:36;1.30;99.90
29295;DHT22;16305;48.566;8.846;2023-01-24T10:33:41;1.30;99.90
29295;DHT22;16305;48.566;8.846;2023-01-24T10:36:45;1.30;99.90
29295;DHT22;16305;48.566;8.846;2023-01-24T10:39:11;1.20;99.90
29295;DHT22;16305;48.566;8.846;2023-01-24T10:41:37;1.20;99.90
29295;DHT22;16305;48.566;8.846;2023-01-24T10:44:45;1.20;99.90
29295;DHT22;16305;48.566;8.846;2023-01-24T10:52:24;1.10;99.90
29295;DHT22;16305;48.566;8.846;2023-01-24T10:54:58;1.20;99.90
29295;DHT22;16305;48.566;8.846;2023-01-24T11:00:16;1.10;99.90
29295;DHT22;16305;48.566;8.846;2023-01-24T11:02:48;1.10;99.90
29295;DHT22;16305;48.566;8.846;2023-01-24T11:05:14;1.10;99.90
29295;DHT22;16305;48.566;8.846;2023-01-24T11:07:46;1.10;99.90
29295;DHT22;16305;48.566;8.846;2023-01-24T11:10:19;1.10;99.90
29295;DHT22;16305;48.566;8.846;2023-01-24T11:12:49;1.10;99.90
29295;DHT22;16305;48.566;8.846;2023-01-24T11:15:22;1.10;99.90
29295;DHT22;16305;48.566;8.846;2023-01-24T11:17:53;1.20;99.90
29295;DHT22;16305;48.566;8.846;2023-01-24T11:20:27;1.20;99.90
29295;DHT22;16305;48.566;8.846;2023-01-24T11:23:02;1.20;99.90
29295;DHT22;16305;48.566;8.846;2023-01-24T11:25:27;1.20;99.90
29295;DHT22;16305;48.566;8.846;2023-01-24T11:27:53;1.20;99.90
29295;DHT22;16305;48.566;8.846;2023-01-24T11:30:20;1.20;99.90
29295;DHT22;16305;48.566;8.846;2023-01-24T11:32:56;1.30;99.90
29295;DHT22;16305;48.566;8.846;2023-01-24T11:35:33;1.30;99.90
29295;DHT22;16305;48.566;8.846;2023-01-24T11:38:40;1.30;99.90
29295;DHT22;16305;48.566;8.846;2023-01-24T11:41:08;1.30;99.90
29295;DHT22;16305;48.566;8.846;2023-01-24T11:46:59;1.30;99.90
29295;DHT22;16305;48.566;8.846;2023-01-24T11:49:39;1.30;99.90
29295;DHT22;16305;48.566;8.846;2023-01-24T11:55:16;1.40;99.90
29295;DHT22;16305;48.566;8.846;2023-01-24T11:58:42;1.30;99.90
29295;DHT22;16305;48.566;8.846;2023-01-24T12:11:38;1.50;99.90
29295;DHT22;16305;48.566;8.846;2023-01-24T12:14:37;1.50;99.90
29295;DHT22;16305;48.566;8.846;2023-01-24T12:23:02;1.50;99.90
29295;DHT22;16305;48.566;8.846;2023-01-24T12:25:38;1.60;99.90
29295;DHT22;16305;48.566;8.846;2023-01-24T12:28:06;1.60;99.90
29295;DHT22;16305;48.566;8.846;2023-01-24T12:30:43;1.60;99.90
29295;DHT22;16305;48.566;8.846;2023-01-24T12:33:35;1.60;99.90
29295;DHT22;16305;48.566;8.846;2023-01-24T12:36:25;1.50;99.90
29295;DHT22;16305;48.566;8.846;2023-01-24T12:38:56;1.60;99.90
29295;DHT22;16305;48.566;8.846;2023-01-24T12:41:33;1.60;99.90
29295;DHT22;16305;48.566;8.846;2023-01-24T12:44:34;1.60;99.90
29295;DHT22;16305;48.566;8.846;2023-01-24T12:47:20;1.60;99.90
29295;DHT22;16305;48.566;8.846;2023-01-24T12:50:49;1.60;99.90
29295;DHT22;16305;48.566;8.846;2023-01-24T12:55:33;1.60;99.90
29295;DHT22;16305;48.566;8.846;2023-01-24T12:58:25;1.60;99.90
29295;DHT22;16305;48.566;8.846;2023-01-24T13:04:15;1.50;99.90
29295;DHT22;16305;48.566;8.846;2023-01-24T13:09:55;1.50;99.90
29295;DHT22;16305;48.566;8.846;2023-01-24T13:12:24;1.50;99.90
29295;DHT22;16305;48.566;8.846;2023-01-24T13:14:58;1.50;99.90
29295;DHT22;16305;48.566;8.846;2023-01-24T13:17:46;1.40;99.90
29295;DHT22;16305;48.566;8.846;2023-01-24T13:23:32;1.40;99.90
29295;DHT22;16305;48.566;8.846;2023-01-24T13:31:55;1.40;99.90
29295;DHT22;16305;48.566;8.846;2023-01-24T13:34:31;1.40;99.90
29295;DHT22;16305;48.566;8.846;2023-01-24T13:36:58;1.40;99.90
29295;DHT22;16305;48.566;8.846;2023-01-24T13:39:36;1.40;99.90
29295;DHT22;16305;48.566;8.846;2023-01-24T13:42:19;1.40;99.90
29295;DHT22;16305;48.566;8.846;2023-01-24T13:44:45;1.40;99.90
29295;DHT22;16305;48.566;8.846;2023-01-24T13:54:57;1.40;99.90
29295;DHT22;16305;48.566;8.846;2023-01-24T14:07:56;1.50;99.90
29295;DHT22;16305;48.566;8.846;2023-01-24T14:10:38;1.40;99.90
29295;DHT22;16305;48.566;8.846;2023-01-24T14:13:05;1.40;99.90
29295;DHT22;16305;48.566;8.846;2023-01-24T14:15:38;1.50;99.90
29295;DHT22;16305;48.566;8.846;2023-01-24T14:21:19;1.50;99.90
29295;DHT22;16305;48.566;8.846;2023-01-24T14:23:47;1.50;99.90
29295;DHT22;16305;48.566;8.846;2023-01-24T14:26:16;1.50;99.90
29295;DHT22;16305;48.566;8.846;2023-01-24T14:28:53;1.50;99.90
29295;DHT22;16305;48.566;8.846;2023-01-24T14:31:24;1.50;99.90
29295;DHT22;16305;48.566;8.846;2023-01-24T14:36:47;1.50;99.90
29295;DHT22;16305;48.566;8.846;2023-01-24T14:39:26;1.50;99.90
29295;DHT22;16305;48.566;8.846;2023-01-24T14:42:00;1.50;99.90
29295;DHT22;16305;48.566;8.846;2023-01-24T14:44:34;1.50;99.90
29295;DHT22;16305;48.566;8.846;2023-01-24T14:47:19;1.50;99.90
29295;DHT22;16305;48.566;8.846;2023-01-24T14:49:47;1.50;99.90
29295;DHT22;16305;48.566;8.846;2023-01-24T14:52:27;1.50;99.90
29295;DHT22;16305;48.566;8.846;2023-01-24T14:54:58;1.40;99.90
29295;DHT22;16305;48.566;8.846;2023-01-24T14:57:29;1.40;99.90
29295;DHT22;16305;48.566;8.846;2023-01-24T15:00:06;1.40;99.90
29295;DHT22;16305;48.566;8.846;2023-01-24T15:02:49;1.40;99.90
29295;DHT22;16305;48.566;8.846;2023-01-24T15:05:29;1.40;99.90
29295;DHT22;16305;48.566;8.846;2023-01-24T15:07:57;1.40;99.90
29295;DHT22;16305;48.566;8.846;2023-01-24T15:10:29;1.30;99.90
29295;DHT22;16305;48.566;8.846;2023-01-24T15:12:59;1.30;99.90
29295;DHT22;16305;48.566;8.846;2023-01-24T15:15:26;1.40;99.90
29295;DHT22;16305;48.566;8.846;2023-01-24T15:17:56;1.30;99.90
29295;DHT22;16305;48.566;8.846;2023-01-24T15:20:23;1.30;99.90
29295;DHT22;16305;48.566;8.846;2023-01-24T15:22:53;1.30;99.90
29295;DHT22;16305;48.566;8.846;2023-01-24T15:25:22;1.30;99.90
29295;DHT22;16305;48.566;8.846;2023-01-24T15:27:48;1.30;99.90
29295;DHT22;16305;48.566;8.846;2023-01-24T15:30:20;1.20;99.90
29295;DHT22;16305;48.566;8.846;2023-01-24T15:40:35;1.20;99.90
29295;DHT22;16305;48.566;8.846;2023-01-24T15:43:02;1.20;99.90
29295;DHT22;16305;48.566;8.846;2023-01-24T15:45:53;1.20;99.90
29295;DHT22;16305;48.566;8.846;2023-01-24T15:48:59;1.10;99.90
29295;DHT22;16305;48.566;8.846;2023-01-24T15:51:37;1.10;99.90
29295;DHT22;16305;48.566;8.846;2023-01-24T15:54:14;1.10;99.90
29295;DHT22;16305;48.566;8.846;2023-01-24T15:56:41;1.10;99.90
29295;DHT22;16305;48.566;8.846;2023-01-24T15:59:15;1.20;99.90
29295;DHT22;16305;48.566;8.846;2023-01-24T16:01:41;1.10;99.90
29295;DHT22;16305;48.566;8.846;2023-01-24T16:04:15;1.20;99.90
29295;DHT22;16305;48.566;8.846;2023-01-24T16:06:41;1.10;99.90
29295;DHT22;16305;48.566;8.846;2023-01-24T16:09:07;1.10;99.90
29295;DHT22;16305;48.566;8.846;2023-01-24T16:11:35;1.10;99.90
29295;DHT22;16305;48.566;8.846;2023-01-24T16:14:01;1.20;99.90
29295;DHT22;16305;48.566;8.846;2023-01-24T16:16:27;1.20;99.90
29295;DHT22;16305;48.566;8.846;2023-01-24T16:18:53;1.20;99.90
29295;DHT22;16305;48.566;8.846;2023-01-24T16:21:18;1.10;99.90
29295;DHT22;16305;48.566;8.846;2023-01-24T16:23:44;1.10;99.90
29295;DHT22;16305;48.566;8.846;2023-01-24T16:26:23;1.20;99.90
29295;DHT22;16305;48.566;8.846;2023-01-24T16:28:50;1.20;99.90
29295;DHT22;16305;48.566;8.846;2023-01-24T16:31:15;1.20;99.90
29295;DHT22;16305;48.566;8.846;2023-01-24T16:33:42;1.20;99.90
29295;DHT22;16305;48.566;8.846;2023-01-24T16:36:13;1.10;99.90
29295;DHT22;16305;48.566;8.846;2023-01-24T16:38:42;1.10;99.90
29295;DHT22;16305;48.566;8.846;2023-01-24T16:41:10;1.10;99.90
29295;DHT22;16305;48.566;8.846;2023-01-24T16:43:36;1.20;99.90
29295;DHT22;16305;48.566;8.846;2023-01-24T16:46:01;1.10;99.90
29295;DHT22;16305;48.566;8.846;2023-01-24T16:48:30;1.10;99.90
29295;DHT22;16305;48.566;8.846;2023-01-24T16:50:56;1.10;99.90
29295;DHT22;16305;48.566;8.846;2023-01-24T16:53:22;1.10;99.90
29295;DHT22;16305;48.566;8.846;2023-01-24T16:55:55;1.10;99.90
29295;DHT22;16305;48.566;8.846;2023-01-24T16:58:21;1.10;99.90
29295;DHT22;16305;48.566;8.846;2023-01-24T17:00:47;1.00;99.90
29295;DHT22;16305;48.566;8.846;2023-01-24T17:03:12;1.00;99.90
29295;DHT22;16305;48.566;8.846;2023-01-24T17:05:39;1.00;99.90
29295;DHT22;16305;48.566;8.846;2023-01-24T17:08:05;1.10;99.90
29295;DHT22;16305;48.566;8.846;2023-01-24T17:10:31;1.10;99.90
29295;DHT22;16305;48.566;8.846;2023-01-24T17:12:56;1.00;99.90
29295;DHT22;16305;48.566;8.846;2023-01-24T17:15:22;1.00;99.90
29295;DHT22;16305;48.566;8.846;2023-01-24T17:17:48;1.00;99.90
29295;DHT22;16305;48.566;8.846;2023-01-24T17:20:13;1.00;99.90
29295;DHT22;16305;48.566;8.846;2023-01-24T17:22:39;1.00;99.90
29295;DHT22;16305;48.566;8.846;2023-01-24T17:25:05;1.00;99.90
29295;DHT22;16305;48.566;8.846;2023-01-24T17:27:31;1.00;99.90
29295;DHT22;16305;48.566;8.846;2023-01-24T17:29:57;0.90;99.90
29295;DHT22;16305;48.566;8.846;2023-01-24T17:32:22;0.90;99.90
29295;DHT22;16305;48.566;8.846;2023-01-24T17:34:48;0.90;99.90
29295;DHT22;16305;48.566;8.846;2023-01-24T17:37:14;0.90;99.90
29295;DHT22;16305;48.566;8.846;2023-01-24T17:39:40;0.90;99.90
29295;DHT22;16305;48.566;8.846;2023-01-24T17:42:05;0.90;99.90
29295;DHT22;16305;48.566;8.846;2023-01-24T17:44:31;0.90;99.90
29295;DHT22;16305;48.566;8.846;2023-01-24T17:46:56;0.90;99.90